This is the latest recevied weather packets stored in our database for station/object E23XBQ-1. If no packets are shown the sender has not sent any weather packets the latest 10 day(s).
| Time | Temp. | Humidity | Pressure | Rain* | Wind** | Luminosity | Snow |
|---|---|---|---|---|---|---|---|
| 1777803459 | 21.67° C | 87% | 714 hPa | - | - | 0 W/m² | - |
| 1777802833 | 21.67° C | 87% | 714 hPa | - | - | 0 W/m² | - |
| 1777802209 | 34.44° C | 43% | 967 hPa | - | - | 0 W/m² | - |
| 1777801584 | 35.56° C | 41% | 967 hPa | - | - | 0 W/m² | - |
| 1777800959 | 36.11° C | 38% | 968 hPa | - | - | 0 W/m² | - |
| 1777800334 | 37.22° C | 37% | 967 hPa | - | - | 0 W/m² | - |
| 1777799710 | 36.67° C | 38% | 967 hPa | - | - | 0 W/m² | - |
| 1777799085 | 37.22° C | 38% | 967 hPa | - | - | 0 W/m² | - |
| 1777798461 | 37.22° C | 33% | 968 hPa | - | - | 0 W/m² | - |
| 1777797836 | 37.78° C | 33% | 968 hPa | - | - | 0 W/m² | - |
| 1777797211 | 36.67° C | 37% | 968 hPa | - | - | 0 W/m² | - |
| 1777796586 | 36.67° C | 38% | 968 hPa | - | - | 0 W/m² | - |
| 1777795961 | 36.11° C | 39% | 968 hPa | - | - | 0 W/m² | - |
| 1777795337 | 35.56° C | 41% | 968 hPa | - | - | 0 W/m² | - |
| 1777794711 | 36.11° C | 40% | 968 hPa | - | - | 0 W/m² | - |
| 1777794086 | 36.67° C | 39% | 969 hPa | - | - | 0 W/m² | - |
| 1777793462 | 36.67° C | 36% | 969 hPa | - | - | 0 W/m² | - |
| 1777792838 | 37.22° C | 37% | 969 hPa | - | - | 0 W/m² | - |
| 1777792213 | 38.33° C | 31% | 969 hPa | - | - | 0 W/m² | - |
| 1777791589 | 38.89° C | 30% | 969 hPa | - | - | 0 W/m² | - |
| 1777790964 | 39.44° C | 31% | 969 hPa | - | - | 0 W/m² | - |
| 1777790340 | 39.44° C | 31% | 970 hPa | - | - | 0 W/m² | - |
| 1777789715 | 38.89° C | 32% | 970 hPa | - | - | 0 W/m² | - |
| 1777789090 | 38.33° C | 34% | 970 hPa | - | - | 0 W/m² | - |
| 1777788466 | 38.33° C | 34% | 970 hPa | - | - | 0 W/m² | - |
* Rain since midnight (hover to see other rain measurements)
** Current wind speed in m/s (hover to see current wind gust speed)